sensor_id;sensor_type;location;lat;lon;timestamp;P1;durP1;ratioP1;P2;durP2;ratioP2
14116;SDS011;7137;51.436;6.544;2024-03-08T00:02:49;19.70;;;15.73;;
14116;SDS011;7137;51.436;6.544;2024-03-08T00:05:51;22.47;;;17.03;;
14116;SDS011;7137;51.436;6.544;2024-03-08T00:08:53;19.40;;;15.83;;
14116;SDS011;7137;51.436;6.544;2024-03-08T00:11:54;21.30;;;16.27;;
14116;SDS011;7137;51.436;6.544;2024-03-08T00:14:56;21.27;;;16.93;;
14116;SDS011;7137;51.436;6.544;2024-03-08T00:17:59;20.47;;;16.53;;
14116;SDS011;7137;51.436;6.544;2024-03-08T00:21:00;19.77;;;16.07;;
14116;SDS011;7137;51.436;6.544;2024-03-08T00:24:02;20.07;;;16.33;;
14116;SDS011;7137;51.436;6.544;2024-03-08T00:27:04;20.37;;;16.03;;
14116;SDS011;7137;51.436;6.544;2024-03-08T00:30:06;21.70;;;16.00;;
14116;SDS011;7137;51.436;6.544;2024-03-08T00:33:09;20.97;;;15.67;;
14116;SDS011;7137;51.436;6.544;2024-03-08T00:36:11;20.43;;;16.43;;
14116;SDS011;7137;51.436;6.544;2024-03-08T00:39:13;18.93;;;15.87;;
14116;SDS011;7137;51.436;6.544;2024-03-08T00:42:15;20.27;;;16.43;;
14116;SDS011;7137;51.436;6.544;2024-03-08T00:45:16;21.73;;;16.23;;
14116;SDS011;7137;51.436;6.544;2024-03-08T00:48:19;19.40;;;15.70;;
14116;SDS011;7137;51.436;6.544;2024-03-08T00:51:21;20.93;;;16.13;;
14116;SDS011;7137;51.436;6.544;2024-03-08T00:54:22;22.70;;;17.47;;
14116;SDS011;7137;51.436;6.544;2024-03-08T00:57:24;20.40;;;16.57;;
14116;SDS011;7137;51.436;6.544;2024-03-08T01:00:25;20.20;;;16.57;;
14116;SDS011;7137;51.436;6.544;2024-03-08T01:03:29;22.70;;;17.10;;
14116;SDS011;7137;51.436;6.544;2024-03-08T01:06:31;21.60;;;17.83;;
14116;SDS011;7137;51.436;6.544;2024-03-08T01:09:33;20.53;;;16.23;;
14116;SDS011;7137;51.436;6.544;2024-03-08T01:12:35;21.63;;;16.83;;
14116;SDS011;7137;51.436;6.544;2024-03-08T01:15:36;20.63;;;17.03;;
14116;SDS011;7137;51.436;6.544;2024-03-08T01:18:42;21.47;;;17.27;;
14116;SDS011;7137;51.436;6.544;2024-03-08T01:21:44;20.33;;;17.23;;
14116;SDS011;7137;51.436;6.544;2024-03-08T01:24:46;19.97;;;17.03;;
14116;SDS011;7137;51.436;6.544;2024-03-08T01:27:47;20.50;;;16.77;;
14116;SDS011;7137;51.436;6.544;2024-03-08T01:30:49;20.90;;;16.77;;
14116;SDS011;7137;51.436;6.544;2024-03-08T01:33:56;22.10;;;17.73;;
14116;SDS011;7137;51.436;6.544;2024-03-08T01:36:58;22.50;;;16.93;;
14116;SDS011;7137;51.436;6.544;2024-03-08T01:40:00;21.00;;;17.73;;
14116;SDS011;7137;51.436;6.544;2024-03-08T01:43:15;23.23;;;18.37;;
14116;SDS011;7137;51.436;6.544;2024-03-08T01:46:20;21.17;;;18.03;;
14116;SDS011;7137;51.436;6.544;2024-03-08T01:49:24;24.20;;;18.73;;
14116;SDS011;7137;51.436;6.544;2024-03-08T01:52:27;23.77;;;18.20;;
14116;SDS011;7137;51.436;6.544;2024-03-08T01:55:31;20.80;;;17.00;;
14116;SDS011;7137;51.436;6.544;2024-03-08T01:58:33;22.77;;;17.80;;
14116;SDS011;7137;51.436;6.544;2024-03-08T02:01:35;23.50;;;17.80;;
14116;SDS011;7137;51.436;6.544;2024-03-08T02:04:38;21.27;;;18.00;;
14116;SDS011;7137;51.436;6.544;2024-03-08T02:07:40;22.80;;;18.97;;
14116;SDS011;7137;51.436;6.544;2024-03-08T02:10:44;23.00;;;18.70;;
14116;SDS011;7137;51.436;6.544;2024-03-08T02:13:45;22.23;;;17.70;;
14116;SDS011;7137;51.436;6.544;2024-03-08T02:16:47;23.27;;;18.77;;
14116;SDS011;7137;51.436;6.544;2024-03-08T02:19:50;23.47;;;18.53;;
14116;SDS011;7137;51.436;6.544;2024-03-08T02:22:53;24.53;;;19.60;;
14116;SDS011;7137;51.436;6.544;2024-03-08T02:25:55;24.90;;;19.13;;
14116;SDS011;7137;51.436;6.544;2024-03-08T02:28:58;21.40;;;18.43;;
14116;SDS011;7137;51.436;6.544;2024-03-08T02:31:59;23.60;;;19.27;;
14116;SDS011;7137;51.436;6.544;2024-03-08T02:35:01;23.67;;;19.20;;
14116;SDS011;7137;51.436;6.544;2024-03-08T02:38:04;23.47;;;18.43;;
14116;SDS011;7137;51.436;6.544;2024-03-08T02:41:05;23.27;;;18.77;;
14116;SDS011;7137;51.436;6.544;2024-03-08T02:44:07;24.13;;;19.57;;
14116;SDS011;7137;51.436;6.544;2024-03-08T02:47:09;23.43;;;18.73;;
14116;SDS011;7137;51.436;6.544;2024-03-08T02:50:11;23.33;;;19.37;;
14116;SDS011;7137;51.436;6.544;2024-03-08T02:53:17;21.37;;;18.33;;
14116;SDS011;7137;51.436;6.544;2024-03-08T02:56:19;25.00;;;19.37;;
14116;SDS011;7137;51.436;6.544;2024-03-08T02:59:21;23.53;;;18.97;;
14116;SDS011;7137;51.436;6.544;2024-03-08T03:02:23;23.10;;;18.70;;
14116;SDS011;7137;51.436;6.544;2024-03-08T03:05:26;25.30;;;20.33;;
14116;SDS011;7137;51.436;6.544;2024-03-08T03:08:29;24.80;;;19.90;;
14116;SDS011;7137;51.436;6.544;2024-03-08T03:11:30;26.10;;;20.27;;
14116;SDS011;7137;51.436;6.544;2024-03-08T03:14:32;23.50;;;19.53;;
14116;SDS011;7137;51.436;6.544;2024-03-08T03:17:34;23.07;;;19.53;;
14116;SDS011;7137;51.436;6.544;2024-03-08T03:20:35;26.40;;;20.63;;
14116;SDS011;7137;51.436;6.544;2024-03-08T03:23:41;25.37;;;20.80;;
14116;SDS011;7137;51.436;6.544;2024-03-08T03:26:43;24.70;;;20.60;;
14116;SDS011;7137;51.436;6.544;2024-03-08T03:29:46;26.27;;;21.87;;
14116;SDS011;7137;51.436;6.544;2024-03-08T03:32:49;27.13;;;21.53;;
14116;SDS011;7137;51.436;6.544;2024-03-08T03:35:51;27.57;;;23.10;;
14116;SDS011;7137;51.436;6.544;2024-03-08T03:38:54;25.93;;;21.47;;
14116;SDS011;7137;51.436;6.544;2024-03-08T03:42:05;26.97;;;22.33;;
14116;SDS011;7137;51.436;6.544;2024-03-08T03:45:06;26.70;;;21.60;;
14116;SDS011;7137;51.436;6.544;2024-03-08T03:48:09;27.07;;;22.50;;
14116;SDS011;7137;51.436;6.544;2024-03-08T03:51:11;29.57;;;23.27;;
14116;SDS011;7137;51.436;6.544;2024-03-08T03:54:16;30.13;;;22.33;;
14116;SDS011;7137;51.436;6.544;2024-03-08T03:57:19;27.83;;;22.70;;
14116;SDS011;7137;51.436;6.544;2024-03-08T04:00:23;27.13;;;22.77;;
14116;SDS011;7137;51.436;6.544;2024-03-08T04:03:26;28.37;;;22.73;;
14116;SDS011;7137;51.436;6.544;2024-03-08T04:06:28;28.23;;;23.20;;
14116;SDS011;7137;51.436;6.544;2024-03-08T04:09:31;30.30;;;22.87;;
14116;SDS011;7137;51.436;6.544;2024-03-08T04:12:33;28.13;;;22.67;;
14116;SDS011;7137;51.436;6.544;2024-03-08T04:15:35;27.73;;;22.10;;
14116;SDS011;7137;51.436;6.544;2024-03-08T04:18:37;28.27;;;22.67;;
14116;SDS011;7137;51.436;6.544;2024-03-08T04:21:39;29.37;;;23.77;;
14116;SDS011;7137;51.436;6.544;2024-03-08T04:24:43;26.77;;;22.23;;
14116;SDS011;7137;51.436;6.544;2024-03-08T04:27:45;30.30;;;22.77;;
14116;SDS011;7137;51.436;6.544;2024-03-08T04:30:48;29.07;;;23.10;;
14116;SDS011;7137;51.436;6.544;2024-03-08T04:33:50;29.17;;;23.10;;
14116;SDS011;7137;51.436;6.544;2024-03-08T04:36:52;29.33;;;23.07;;
14116;SDS011;7137;51.436;6.544;2024-03-08T04:39:55;29.03;;;22.47;;
14116;SDS011;7137;51.436;6.544;2024-03-08T04:42:56;31.50;;;23.53;;
14116;SDS011;7137;51.436;6.544;2024-03-08T04:46:00;30.90;;;23.27;;
14116;SDS011;7137;51.436;6.544;2024-03-08T04:49:03;31.73;;;23.93;;
14116;SDS011;7137;51.436;6.544;2024-03-08T04:52:07;29.77;;;23.23;;
14116;SDS011;7137;51.436;6.544;2024-03-08T04:55:10;28.33;;;22.50;;
14116;SDS011;7137;51.436;6.544;2024-03-08T04:58:11;28.93;;;23.43;;
14116;SDS011;7137;51.436;6.544;2024-03-08T05:01:13;29.10;;;23.50;;
14116;SDS011;7137;51.436;6.544;2024-03-08T05:04:14;27.77;;;23.07;;
14116;SDS011;7137;51.436;6.544;2024-03-08T05:07:16;30.57;;;23.27;;
14116;SDS011;7137;51.436;6.544;2024-03-08T05:10:19;30.23;;;24.00;;
14116;SDS011;7137;51.436;6.544;2024-03-08T05:13:20;29.17;;;22.77;;
14116;SDS011;7137;51.436;6.544;2024-03-08T05:16:23;30.60;;;23.67;;
14116;SDS011;7137;51.436;6.544;2024-03-08T05:19:24;31.83;;;24.30;;
14116;SDS011;7137;51.436;6.544;2024-03-08T05:22:26;28.57;;;23.77;;
14116;SDS011;7137;51.436;6.544;2024-03-08T05:25:29;29.20;;;23.13;;
14116;SDS011;7137;51.436;6.544;2024-03-08T05:28:31;31.00;;;23.60;;
14116;SDS011;7137;51.436;6.544;2024-03-08T05:31:35;27.73;;;22.80;;
14116;SDS011;7137;51.436;6.544;2024-03-08T05:34:44;30.10;;;23.50;;
14116;SDS011;7137;51.436;6.544;2024-03-08T05:37:45;30.03;;;23.33;;
14116;SDS011;7137;51.436;6.544;2024-03-08T05:40:48;30.83;;;24.50;;
14116;SDS011;7137;51.436;6.544;2024-03-08T05:43:51;31.77;;;25.20;;
14116;SDS011;7137;51.436;6.544;2024-03-08T05:46:53;31.87;;;24.67;;
14116;SDS011;7137;51.436;6.544;2024-03-08T05:49:56;34.53;;;24.03;;
14116;SDS011;7137;51.436;6.544;2024-03-08T05:52:57;31.83;;;24.10;;
14116;SDS011;7137;51.436;6.544;2024-03-08T05:56:00;29.30;;;23.57;;
14116;SDS011;7137;51.436;6.544;2024-03-08T05:59:03;33.10;;;25.13;;
14116;SDS011;7137;51.436;6.544;2024-03-08T06:02:05;31.27;;;24.83;;
14116;SDS011;7137;51.436;6.544;2024-03-08T06:05:08;31.93;;;24.53;;
14116;SDS011;7137;51.436;6.544;2024-03-08T06:08:10;32.07;;;24.60;;
14116;SDS011;7137;51.436;6.544;2024-03-08T06:11:13;31.77;;;24.07;;
14116;SDS011;7137;51.436;6.544;2024-03-08T06:14:15;32.83;;;24.17;;
14116;SDS011;7137;51.436;6.544;2024-03-08T06:17:18;31.30;;;24.90;;
14116;SDS011;7137;51.436;6.544;2024-03-08T06:20:20;32.33;;;24.97;;
14116;SDS011;7137;51.436;6.544;2024-03-08T06:23:26;34.37;;;25.00;;
14116;SDS011;7137;51.436;6.544;2024-03-08T06:26:29;32.13;;;24.80;;
14116;SDS011;7137;51.436;6.544;2024-03-08T06:29:30;33.67;;;24.73;;
14116;SDS011;7137;51.436;6.544;2024-03-08T06:32:32;33.93;;;25.63;;
14116;SDS011;7137;51.436;6.544;2024-03-08T06:35:35;34.53;;;25.90;;
14116;SDS011;7137;51.436;6.544;2024-03-08T06:38:37;34.60;;;25.07;;
14116;SDS011;7137;51.436;6.544;2024-03-08T06:41:43;33.17;;;26.50;;
14116;SDS011;7137;51.436;6.544;2024-03-08T06:44:45;35.03;;;25.43;;
14116;SDS011;7137;51.436;6.544;2024-03-08T06:47:49;32.87;;;25.43;;
14116;SDS011;7137;51.436;6.544;2024-03-08T06:50:51;34.33;;;23.70;;
14116;SDS011;7137;51.436;6.544;2024-03-08T06:53:52;31.67;;;24.87;;
14116;SDS011;7137;51.436;6.544;2024-03-08T06:56:55;30.87;;;25.07;;
14116;SDS011;7137;51.436;6.544;2024-03-08T06:59:56;31.43;;;24.73;;
14116;SDS011;7137;51.436;6.544;2024-03-08T07:02:58;34.20;;;24.73;;
14116;SDS011;7137;51.436;6.544;2024-03-08T07:06:00;33.23;;;25.20;;
14116;SDS011;7137;51.436;6.544;2024-03-08T07:09:02;30.97;;;24.60;;
14116;SDS011;7137;51.436;6.544;2024-03-08T07:12:06;33.80;;;25.73;;
14116;SDS011;7137;51.436;6.544;2024-03-08T07:15:08;29.87;;;24.13;;
14116;SDS011;7137;51.436;6.544;2024-03-08T07:18:13;31.80;;;24.93;;
14116;SDS011;7137;51.436;6.544;2024-03-08T07:21:15;32.30;;;24.93;;
14116;SDS011;7137;51.436;6.544;2024-03-08T07:24:16;34.00;;;25.13;;
14116;SDS011;7137;51.436;6.544;2024-03-08T07:27:39;31.77;;;25.33;;
14116;SDS011;7137;51.436;6.544;2024-03-08T07:30:40;32.37;;;24.93;;
14116;SDS011;7137;51.436;6.544;2024-03-08T07:34:08;32.23;;;24.60;;
14116;SDS011;7137;51.436;6.544;2024-03-08T07:37:09;32.87;;;26.33;;
14116;SDS011;7137;51.436;6.544;2024-03-08T07:40:11;31.63;;;23.70;;
14116;SDS011;7137;51.436;6.544;2024-03-08T07:43:15;33.17;;;24.33;;
14116;SDS011;7137;51.436;6.544;2024-03-08T07:46:16;28.57;;;23.73;;
14116;SDS011;7137;51.436;6.544;2024-03-08T07:49:18;31.00;;;23.30;;
14116;SDS011;7137;51.436;6.544;2024-03-08T07:52:20;28.70;;;23.20;;
14116;SDS011;7137;51.436;6.544;2024-03-08T07:55:22;26.97;;;21.43;;
14116;SDS011;7137;51.436;6.544;2024-03-08T07:58:25;29.37;;;22.67;;
14116;SDS011;7137;51.436;6.544;2024-03-08T08:01:28;27.93;;;21.23;;
14116;SDS011;7137;51.436;6.544;2024-03-08T08:04:30;28.20;;;22.03;;
14116;SDS011;7137;51.436;6.544;2024-03-08T08:07:32;26.57;;;21.63;;
14116;SDS011;7137;51.436;6.544;2024-03-08T08:10:33;24.40;;;20.00;;
14116;SDS011;7137;51.436;6.544;2024-03-08T08:13:36;27.73;;;21.13;;
14116;SDS011;7137;51.436;6.544;2024-03-08T08:16:39;25.33;;;20.63;;
14116;SDS011;7137;51.436;6.544;2024-03-08T08:19:42;24.47;;;21.27;;
14116;SDS011;7137;51.436;6.544;2024-03-08T08:22:44;25.03;;;21.17;;
14116;SDS011;7137;51.436;6.544;2024-03-08T08:25:47;26.63;;;20.90;;
14116;SDS011;7137;51.436;6.544;2024-03-08T08:28:51;25.50;;;21.33;;
14116;SDS011;7137;51.436;6.544;2024-03-08T08:31:54;28.40;;;20.53;;
14116;SDS011;7137;51.436;6.544;2024-03-08T08:34:59;26.53;;;21.07;;
14116;SDS011;7137;51.436;6.544;2024-03-08T08:38:00;26.23;;;20.73;;
14116;SDS011;7137;51.436;6.544;2024-03-08T08:41:03;24.43;;;20.23;;
14116;SDS011;7137;51.436;6.544;2024-03-08T08:44:07;23.17;;;19.37;;
14116;SDS011;7137;51.436;6.544;2024-03-08T08:47:10;22.80;;;19.03;;
14116;SDS011;7137;51.436;6.544;2024-03-08T08:50:13;23.13;;;19.67;;
14116;SDS011;7137;51.436;6.544;2024-03-08T08:53:14;22.07;;;19.60;;
14116;SDS011;7137;51.436;6.544;2024-03-08T08:56:17;22.90;;;20.00;;
14116;SDS011;7137;51.436;6.544;2024-03-08T08:59:20;23.27;;;19.20;;
14116;SDS011;7137;51.436;6.544;2024-03-08T09:02:25;22.43;;;18.63;;
14116;SDS011;7137;51.436;6.544;2024-03-08T09:05:26;22.03;;;18.50;;
14116;SDS011;7137;51.436;6.544;2024-03-08T09:08:28;21.30;;;17.93;;
14116;SDS011;7137;51.436;6.544;2024-03-08T09:11:30;20.83;;;17.40;;
14116;SDS011;7137;51.436;6.544;2024-03-08T09:14:32;21.00;;;17.83;;
14116;SDS011;7137;51.436;6.544;2024-03-08T09:17:34;20.93;;;18.03;;
14116;SDS011;7137;51.436;6.544;2024-03-08T09:20:36;22.80;;;18.43;;
14116;SDS011;7137;51.436;6.544;2024-03-08T09:23:37;25.07;;;18.53;;
14116;SDS011;7137;51.436;6.544;2024-03-08T09:26:40;25.13;;;18.60;;
14116;SDS011;7137;51.436;6.544;2024-03-08T09:29:43;21.77;;;18.87;;
14116;SDS011;7137;51.436;6.544;2024-03-08T09:32:45;21.20;;;17.93;;
14116;SDS011;7137;51.436;6.544;2024-03-08T09:35:46;22.57;;;18.07;;
14116;SDS011;7137;51.436;6.544;2024-03-08T09:38:48;19.83;;;17.33;;
14116;SDS011;7137;51.436;6.544;2024-03-08T09:41:50;19.77;;;17.13;;
14116;SDS011;7137;51.436;6.544;2024-03-08T09:44:53;18.50;;;15.90;;
14116;SDS011;7137;51.436;6.544;2024-03-08T09:47:54;18.20;;;16.20;;
14116;SDS011;7137;51.436;6.544;2024-03-08T09:50:56;18.77;;;16.77;;
14116;SDS011;7137;51.436;6.544;2024-03-08T09:53:58;18.37;;;15.40;;
14116;SDS011;7137;51.436;6.544;2024-03-08T09:57:00;22.00;;;16.90;;
14116;SDS011;7137;51.436;6.544;2024-03-08T10:00:05;20.27;;;16.27;;
14116;SDS011;7137;51.436;6.544;2024-03-08T10:03:19;19.33;;;17.07;;
14116;SDS011;7137;51.436;6.544;2024-03-08T10:06:22;21.93;;;18.03;;
14116;SDS011;7137;51.436;6.544;2024-03-08T10:09:24;21.03;;;17.93;;
14116;SDS011;7137;51.436;6.544;2024-03-08T10:12:27;20.67;;;18.23;;
14116;SDS011;7137;51.436;6.544;2024-03-08T10:15:30;21.70;;;17.87;;
14116;SDS011;7137;51.436;6.544;2024-03-08T10:18:33;21.83;;;18.03;;
14116;SDS011;7137;51.436;6.544;2024-03-08T10:21:34;21.37;;;18.23;;
14116;SDS011;7137;51.436;6.544;2024-03-08T10:24:36;21.00;;;18.37;;
14116;SDS011;7137;51.436;6.544;2024-03-08T10:27:37;21.53;;;18.20;;
14116;SDS011;7137;51.436;6.544;2024-03-08T10:30:46;21.97;;;18.67;;
14116;SDS011;7137;51.436;6.544;2024-03-08T10:33:48;20.87;;;18.63;;
14116;SDS011;7137;51.436;6.544;2024-03-08T10:36:50;20.23;;;18.03;;
14116;SDS011;7137;51.436;6.544;2024-03-08T10:39:56;21.77;;;17.83;;
14116;SDS011;7137;51.436;6.544;2024-03-08T10:43:11;20.90;;;18.13;;
14116;SDS011;7137;51.436;6.544;2024-03-08T10:46:29;24.63;;;17.63;;
14116;SDS011;7137;51.436;6.544;2024-03-08T10:49:42;20.57;;;17.40;;
14116;SDS011;7137;51.436;6.544;2024-03-08T10:52:52;20.77;;;17.17;;
14116;SDS011;7137;51.436;6.544;2024-03-08T10:55:55;19.50;;;16.60;;
14116;SDS011;7137;51.436;6.544;2024-03-08T10:58:58;19.63;;;16.47;;
14116;SDS011;7137;51.436;6.544;2024-03-08T11:02:01;17.17;;;14.90;;
14116;SDS011;7137;51.436;6.544;2024-03-08T11:05:04;15.80;;;13.50;;
14116;SDS011;7137;51.436;6.544;2024-03-08T11:08:16;13.77;;;11.13;;
14116;SDS011;7137;51.436;6.544;2024-03-08T11:11:23;12.63;;;10.80;;
14116;SDS011;7137;51.436;6.544;2024-03-08T11:14:42;13.00;;;10.77;;
14116;SDS011;7137;51.436;6.544;2024-03-08T11:17:48;13.30;;;11.20;;
14116;SDS011;7137;51.436;6.544;2024-03-08T11:20:50;14.07;;;11.13;;
14116;SDS011;7137;51.436;6.544;2024-03-08T11:23:58;12.17;;;9.97;;
14116;SDS011;7137;51.436;6.544;2024-03-08T11:27:03;12.63;;;10.07;;
14116;SDS011;7137;51.436;6.544;2024-03-08T11:30:05;11.90;;;10.17;;
14116;SDS011;7137;51.436;6.544;2024-03-08T11:33:12;12.37;;;9.00;;
14116;SDS011;7137;51.436;6.544;2024-03-08T11:36:19;12.33;;;10.10;;
14116;SDS011;7137;51.436;6.544;2024-03-08T11:39:22;11.37;;;9.50;;
14116;SDS011;7137;51.436;6.544;2024-03-08T11:42:24;11.03;;;9.13;;
14116;SDS011;7137;51.436;6.544;2024-03-08T11:45:27;11.23;;;9.57;;
14116;SDS011;7137;51.436;6.544;2024-03-08T11:48:30;10.83;;;8.80;;
14116;SDS011;7137;51.436;6.544;2024-03-08T11:51:31;11.20;;;9.77;;
14116;SDS011;7137;51.436;6.544;2024-03-08T11:54:33;12.37;;;9.80;;
14116;SDS011;7137;51.436;6.544;2024-03-08T11:57:36;12.10;;;9.23;;
14116;SDS011;7137;51.436;6.544;2024-03-08T12:00:37;12.00;;;9.50;;
14116;SDS011;7137;51.436;6.544;2024-03-08T12:03:40;11.67;;;9.07;;
14116;SDS011;7137;51.436;6.544;2024-03-08T12:06:43;12.13;;;9.60;;
14116;SDS011;7137;51.436;6.544;2024-03-08T12:13:17;10.73;;;8.57;;
14116;SDS011;7137;51.436;6.544;2024-03-08T12:16:19;11.80;;;8.90;;
14116;SDS011;7137;51.436;6.544;2024-03-08T12:19:23;11.63;;;8.60;;
14116;SDS011;7137;51.436;6.544;2024-03-08T12:22:25;13.50;;;10.47;;
14116;SDS011;7137;51.436;6.544;2024-03-08T12:25:27;18.30;;;16.23;;
14116;SDS011;7137;51.436;6.544;2024-03-08T12:28:31;17.93;;;16.03;;
14116;SDS011;7137;51.436;6.544;2024-03-08T12:31:32;18.73;;;16.53;;
14116;SDS011;7137;51.436;6.544;2024-03-08T12:34:37;19.37;;;17.20;;
14116;SDS011;7137;51.436;6.544;2024-03-08T12:37:39;22.37;;;18.23;;
14116;SDS011;7137;51.436;6.544;2024-03-08T12:40:40;22.73;;;17.70;;
14116;SDS011;7137;51.436;6.544;2024-03-08T12:43:42;20.53;;;17.63;;
14116;SDS011;7137;51.436;6.544;2024-03-08T12:46:48;20.47;;;17.97;;
14116;SDS011;7137;51.436;6.544;2024-03-08T12:49:52;21.07;;;17.43;;
14116;SDS011;7137;51.436;6.544;2024-03-08T12:52:54;20.13;;;17.47;;
14116;SDS011;7137;51.436;6.544;2024-03-08T12:55:55;19.90;;;17.13;;
14116;SDS011;7137;51.436;6.544;2024-03-08T12:58:57;20.73;;;17.73;;
14116;SDS011;7137;51.436;6.544;2024-03-08T13:01:59;20.33;;;18.03;;
14116;SDS011;7137;51.436;6.544;2024-03-08T13:05:02;19.67;;;17.17;;
14116;SDS011;7137;51.436;6.544;2024-03-08T13:08:05;19.43;;;16.90;;
14116;SDS011;7137;51.436;6.544;2024-03-08T13:11:12;18.43;;;16.50;;
14116;SDS011;7137;51.436;6.544;2024-03-08T13:14:14;18.07;;;15.93;;
14116;SDS011;7137;51.436;6.544;2024-03-08T13:17:16;18.07;;;16.13;;
14116;SDS011;7137;51.436;6.544;2024-03-08T13:20:19;18.67;;;15.83;;
14116;SDS011;7137;51.436;6.544;2024-03-08T13:23:23;18.33;;;15.63;;
14116;SDS011;7137;51.436;6.544;2024-03-08T13:26:24;18.43;;;15.60;;
14116;SDS011;7137;51.436;6.544;2024-03-08T13:29:32;17.70;;;15.80;;
14116;SDS011;7137;51.436;6.544;2024-03-08T13:32:34;15.60;;;13.57;;
14116;SDS011;7137;51.436;6.544;2024-03-08T13:35:36;16.73;;;14.93;;
14116;SDS011;7137;51.436;6.544;2024-03-08T13:38:38;16.40;;;14.30;;
14116;SDS011;7137;51.436;6.544;2024-03-08T13:41:42;11.50;;;9.50;;
14116;SDS011;7137;51.436;6.544;2024-03-08T13:44:45;11.30;;;7.53;;
14116;SDS011;7137;51.436;6.544;2024-03-08T13:47:47;9.83;;;7.57;;
14116;SDS011;7137;51.436;6.544;2024-03-08T13:50:50;9.33;;;7.47;;
14116;SDS011;7137;51.436;6.544;2024-03-08T13:53:52;10.97;;;7.97;;
14116;SDS011;7137;51.436;6.544;2024-03-08T13:56:54;10.23;;;7.73;;
14116;SDS011;7137;51.436;6.544;2024-03-08T13:59:56;9.70;;;7.53;;
14116;SDS011;7137;51.436;6.544;2024-03-08T14:02:57;10.40;;;7.37;;
14116;SDS011;7137;51.436;6.544;2024-03-08T14:06:00;9.93;;;8.03;;
14116;SDS011;7137;51.436;6.544;2024-03-08T14:09:03;9.57;;;7.70;;
14116;SDS011;7137;51.436;6.544;2024-03-08T14:12:07;11.60;;;8.20;;
14116;SDS011;7137;51.436;6.544;2024-03-08T14:15:09;10.97;;;8.33;;
14116;SDS011;7137;51.436;6.544;2024-03-08T14:18:12;10.37;;;7.60;;
14116;SDS011;7137;51.436;6.544;2024-03-08T14:21:15;10.23;;;7.80;;
14116;SDS011;7137;51.436;6.544;2024-03-08T14:24:17;9.20;;;7.67;;
14116;SDS011;7137;51.436;6.544;2024-03-08T14:27:18;9.67;;;7.70;;
14116;SDS011;7137;51.436;6.544;2024-03-08T14:30:20;9.40;;;6.87;;
14116;SDS011;7137;51.436;6.544;2024-03-08T14:33:34;8.27;;;7.37;;
14116;SDS011;7137;51.436;6.544;2024-03-08T14:36:38;9.40;;;7.43;;
14116;SDS011;7137;51.436;6.544;2024-03-08T14:39:40;9.93;;;7.80;;
14116;SDS011;7137;51.436;6.544;2024-03-08T14:42:41;8.90;;;7.03;;
14116;SDS011;7137;51.436;6.544;2024-03-08T14:45:43;8.83;;;6.93;;
14116;SDS011;7137;51.436;6.544;2024-03-08T14:48:47;8.80;;;7.10;;
14116;SDS011;7137;51.436;6.544;2024-03-08T14:51:52;8.90;;;6.90;;
14116;SDS011;7137;51.436;6.544;2024-03-08T14:54:54;10.37;;;8.07;;
14116;SDS011;7137;51.436;6.544;2024-03-08T14:57:56;10.27;;;8.20;;
14116;SDS011;7137;51.436;6.544;2024-03-08T15:00:58;9.20;;;7.67;;
14116;SDS011;7137;51.436;6.544;2024-03-08T15:04:00;9.80;;;8.13;;
14116;SDS011;7137;51.436;6.544;2024-03-08T15:07:09;8.93;;;7.60;;
14116;SDS011;7137;51.436;6.544;2024-03-08T15:10:11;10.60;;;7.80;;
14116;SDS011;7137;51.436;6.544;2024-03-08T15:13:16;9.60;;;7.43;;
14116;SDS011;7137;51.436;6.544;2024-03-08T15:16:22;9.97;;;7.67;;
14116;SDS011;7137;51.436;6.544;2024-03-08T15:19:25;10.33;;;8.17;;
14116;SDS011;7137;51.436;6.544;2024-03-08T15:22:29;10.30;;;8.53;;
14116;SDS011;7137;51.436;6.544;2024-03-08T15:25:30;10.10;;;8.50;;
14116;SDS011;7137;51.436;6.544;2024-03-08T15:28:34;10.67;;;8.87;;
14116;SDS011;7137;51.436;6.544;2024-03-08T15:31:37;10.57;;;9.10;;
14116;SDS011;7137;51.436;6.544;2024-03-08T15:34:41;10.90;;;8.43;;
14116;SDS011;7137;51.436;6.544;2024-03-08T15:37:44;10.87;;;8.77;;
14116;SDS011;7137;51.436;6.544;2024-03-08T15:40:46;10.53;;;8.07;;
14116;SDS011;7137;51.436;6.544;2024-03-08T15:43:49;11.10;;;8.73;;
14116;SDS011;7137;51.436;6.544;2024-03-08T15:46:51;10.17;;;8.43;;
14116;SDS011;7137;51.436;6.544;2024-03-08T15:49:52;11.47;;;9.13;;
14116;SDS011;7137;51.436;6.544;2024-03-08T15:52:56;11.53;;;8.50;;
14116;SDS011;7137;51.436;6.544;2024-03-08T15:55:59;10.67;;;8.67;;
14116;SDS011;7137;51.436;6.544;2024-03-08T15:59:02;11.30;;;8.20;;
14116;SDS011;7137;51.436;6.544;2024-03-08T16:02:06;12.30;;;9.37;;
14116;SDS011;7137;51.436;6.544;2024-03-08T16:05:08;13.03;;;8.97;;
14116;SDS011;7137;51.436;6.544;2024-03-08T16:08:13;12.73;;;9.83;;
14116;SDS011;7137;51.436;6.544;2024-03-08T16:11:16;13.40;;;10.33;;
14116;SDS011;7137;51.436;6.544;2024-03-08T16:14:18;12.80;;;9.70;;
14116;SDS011;7137;51.436;6.544;2024-03-08T16:17:20;13.47;;;10.33;;
14116;SDS011;7137;51.436;6.544;2024-03-08T16:20:23;14.47;;;10.70;;
14116;SDS011;7137;51.436;6.544;2024-03-08T16:23:27;12.20;;;10.80;;
14116;SDS011;7137;51.436;6.544;2024-03-08T16:26:28;13.07;;;9.97;;
14116;SDS011;7137;51.436;6.544;2024-03-08T16:29:34;13.20;;;10.13;;
14116;SDS011;7137;51.436;6.544;2024-03-08T16:32:36;13.00;;;10.00;;
14116;SDS011;7137;51.436;6.544;2024-03-08T16:35:38;12.53;;;10.77;;
14116;SDS011;7137;51.436;6.544;2024-03-08T16:38:45;12.97;;;10.67;;
14116;SDS011;7137;51.436;6.544;2024-03-08T16:41:49;13.93;;;9.90;;
14116;SDS011;7137;51.436;6.544;2024-03-08T16:44:50;12.63;;;10.00;;
14116;SDS011;7137;51.436;6.544;2024-03-08T16:47:52;13.20;;;10.13;;
14116;SDS011;7137;51.436;6.544;2024-03-08T16:50:54;12.80;;;9.97;;
14116;SDS011;7137;51.436;6.544;2024-03-08T16:53:57;13.67;;;10.77;;
14116;SDS011;7137;51.436;6.544;2024-03-08T16:57:01;12.97;;;10.10;;
14116;SDS011;7137;51.436;6.544;2024-03-08T17:00:05;14.07;;;10.57;;
14116;SDS011;7137;51.436;6.544;2024-03-08T17:03:09;15.13;;;10.93;;
14116;SDS011;7137;51.436;6.544;2024-03-08T17:06:12;13.33;;;10.70;;
14116;SDS011;7137;51.436;6.544;2024-03-08T17:09:16;14.37;;;11.20;;
14116;SDS011;7137;51.436;6.544;2024-03-08T17:12:18;12.93;;;10.60;;
14116;SDS011;7137;51.436;6.544;2024-03-08T17:15:20;12.73;;;10.37;;
14116;SDS011;7137;51.436;6.544;2024-03-08T17:18:22;13.70;;;10.30;;
14116;SDS011;7137;51.436;6.544;2024-03-08T17:21:26;14.67;;;10.90;;
14116;SDS011;7137;51.436;6.544;2024-03-08T17:24:29;12.47;;;9.93;;
14116;SDS011;7137;51.436;6.544;2024-03-08T17:27:31;13.43;;;10.43;;
14116;SDS011;7137;51.436;6.544;2024-03-08T17:30:33;12.80;;;9.77;;
14116;SDS011;7137;51.436;6.544;2024-03-08T17:33:38;13.93;;;10.50;;
14116;SDS011;7137;51.436;6.544;2024-03-08T17:36:41;13.53;;;10.40;;
14116;SDS011;7137;51.436;6.544;2024-03-08T17:39:44;13.17;;;10.67;;
14116;SDS011;7137;51.436;6.544;2024-03-08T17:42:46;14.33;;;10.43;;
14116;SDS011;7137;51.436;6.544;2024-03-08T17:45:47;13.93;;;10.60;;
14116;SDS011;7137;51.436;6.544;2024-03-08T17:48:49;14.10;;;10.43;;
14116;SDS011;7137;51.436;6.544;2024-03-08T17:51:53;13.00;;;10.37;;
14116;SDS011;7137;51.436;6.544;2024-03-08T17:54:58;14.73;;;11.60;;
14116;SDS011;7137;51.436;6.544;2024-03-08T17:57:59;15.53;;;11.33;;
14116;SDS011;7137;51.436;6.544;2024-03-08T18:01:01;16.73;;;11.33;;
14116;SDS011;7137;51.436;6.544;2024-03-08T18:04:03;16.50;;;12.60;;
14116;SDS011;7137;51.436;6.544;2024-03-08T18:07:06;14.27;;;10.70;;
14116;SDS011;7137;51.436;6.544;2024-03-08T18:10:10;13.73;;;10.53;;
14116;SDS011;7137;51.436;6.544;2024-03-08T18:13:18;13.17;;;9.87;;
14116;SDS011;7137;51.436;6.544;2024-03-08T18:16:20;14.23;;;10.97;;